メインページ
METAR-TAF:

METAR-TAF

空港 :

キリマンジャロ国際空港

キリマンジャロ, タンザニア

緯度: 03-25S, 経度: 037-04E, 海抜: 891m

現時点の気象観測

当レポートは1時間17分前の21:00(UTC)に作成
無風
気温 22°C
湿度 83%
気圧 1018 hPa
視程10km以上
高度2600ftの千切れ雲あり

METAR: HTKJ 162100Z 00000KT 9999 BKN026 22/19 Q1018 NOSIG

時間: 01:17 (22:17 UTC)

予報

当レポートは11時間17分前の11:00(UTC)に作成
予報は16日の 12時(UTC)から 17日の 12時(UTC)まで有効
の風 10kt
視程10km以上
高度3000ftの雲は散在している
16日の 23時(UTC)から 17日の 01時(UTC)まで徐々に
の風 kt

TAF: HTKJ 161100Z 1612/1712 09010KT 9999 SCT030 BECMG 1623/1701 00000KT

4,000以上の空港の気象観測と天気予報(METAR報とTAF報)

利用可能な観測所は地図上に黄色い丸と赤い丸で示す。

丸の上にカーソルを重ねると観測所名を参照できる。

次にクリックすると気象観測と天気予報を参照できる。

マップの切り替え:黒色「×」印の緑ボタンをクリックして拡大、「-」印の緑ボタンをクリックして縮小、緑色の三角印をクリックして隣りの地図に切り替え


METAR-TAF: